avis per tempestes more information blitzortung!


avis per Pluja more information rain snow radar


Visita la nostra xarxa de llocs de meteo:

Template documentation
and downloads

And another site



Thunderstorms From: 18-09-2018 09:00 Until: 19-09-2018 20:59 warning for: Thunderstorms Level: Yellow info button
Rain From: 18-09-2018 09:00 Until: 19-09-2018 20:59 warning for: Rain Level: Yellow info button

Pagina Historial Weather Underground text

Diari Resum Octubre 23, 2017 Unitats:  Mètric    Imperial   Tant
« Previous Dia
SegĂźent Dia »
Diari Setmana Mensual Anual Personalitzada
  Maxima: Minima: Media:
Temperatura: -17.8 °C -12.3 °C -8.8 °C
Punt de rosada: -17.8 °C -15 °C -13.6 °C
Humitat: Humidity % 44 % 57 %
Wind Speed: 0 km/h 0 km/h 5.5 km/h
RĂ fegues de vent: 0 km/h - -
Vent:- - South
Pression baro: 0 hPa 34601.5 hPa -
Precipitacions: 0 mm    
Historical Graphs
 
 
Dades de taula per Octubre 23, 2017
Temps Temperatura Punt de rosada Pression baro Vent Wind Speed RĂ fegues de vent Humitat Rainfall Rate (Hourly)
-17.8 °C -17.8 °C 0 hPa Calm     Humidity % 0 mm
00:01 -10.5 °C -14.7 °C 34703.1 hPa WSW 6 km/h   60 % 0 mm
00:06 -10.4 °C -14.8 °C 34703.1 hPa West 6 km/h 6 km/h 59 % 0 mm
01:55 -11.8 °C -14.8 °C 34740.4 hPa Calm   2.6 km/h 69 % 0 mm
02:05 -11.9 °C -14.9 °C 34740.4 hPa Calm   2.6 km/h 69 % 0 mm
02:15 -12 °C -14.9 °C 34740.4 hPa West 2.6 km/h 2.6 km/h 70 % 0 mm
02:25 -12.1 °C -14.9 °C 34740.4 hPa Calm     70 % 0 mm
02:35 -12.1 °C -14.9 °C 34740.4 hPa Calm     71 % 0 mm
02:45 -12.2 °C -14.9 °C 34740.4 hPa Calm   5.1 km/h 71 % 0 mm
02:55 -12.2 °C -15 °C 34740.4 hPa Calm   2.6 km/h 71 % 0 mm
03:05 -12.3 °C -15 °C 34740.4 hPa NW 2.6 km/h 5.1 km/h 72 % 0 mm
03:15 -12.3 °C -15 °C 34740.4 hPa Calm   2.6 km/h 72 % 0 mm
03:25 -12.3 °C -15 °C 34740.4 hPa Calm     72 % 0 mm
03:35 -12.3 °C -14.9 °C 34740.4 hPa WNW 2.6 km/h 2.6 km/h 73 % 0 mm
03:45 -12.3 °C -14.8 °C 34740.4 hPa West 2.6 km/h 2.6 km/h 73 % 0 mm
03:55 -11.8 °C -14.3 °C 34740.4 hPa Calm   2.6 km/h 74 % 0 mm
04:05 -11.4 °C -14.1 °C 34703.1 hPa North 5.1 km/h 7.7 km/h 72 % 0 mm
04:15 -11.2 °C -14.2 °C 34740.4 hPa NNW 2.6 km/h 5.1 km/h 70 % 0 mm
04:25 -11 °C -14.1 °C 34740.4 hPa North 2.6 km/h 5.1 km/h 69 % 0 mm
04:35 -10.7 °C -13.8 °C 34740.4 hPa NNE 2.6 km/h 2.6 km/h 69 % 0 mm
04:45 -10.6 °C -13.8 °C 34740.4 hPa Calm   5.1 km/h 68 % 0 mm
04:55 -10.4 °C -13.6 °C 34740.4 hPa North 2.6 km/h 5.1 km/h 68 % 0 mm
05:05 -10.6 °C -13.9 °C 34740.4 hPa NE 5.1 km/h 7.7 km/h 67 % 0 mm
05:15 -10.4 °C -13.8 °C 34774.2 hPa NE 5.1 km/h 7.7 km/h 67 % 0 mm
10:24 -10.3 °C -13.8 °C 34774.2 hPa North 7.6 km/h 7.6 km/h 66 % 0 mm
10:27 -10.3 °C -13.7 °C 34774.2 hPa ENE 9 km/h 9 km/h 66 % 0 mm
10:32 -10.1 °C -13.5 °C 34774.2 hPa WNW 9 km/h 9 km/h 66 % 0 mm
10:37 -10.1 °C -13.6 °C 34774.2 hPa NE 11.9 km/h 11.9 km/h 66 % 0 mm
10:42 -10.2 °C -13.8 °C 34740.4 hPa ENE 11.9 km/h 11.9 km/h 65 % 0 mm
10:47 -10 °C -13.6 °C 34740.4 hPa NNE 11.9 km/h 11.9 km/h 65 % 0 mm
10:52 -10.1 °C -13.7 °C 34740.4 hPa NNE 11.9 km/h 11.9 km/h 65 % 0 mm
10:57 -10.1 °C -13.8 °C 34740.4 hPa NE 11.9 km/h 11.9 km/h 64 % 0 mm
11:02 -9.8 °C -13.4 °C 34740.4 hPa ESE 9 km/h 9 km/h 65 % 0 mm
11:07 -9.4 °C -13.1 °C 34740.4 hPa NNE 3.1 km/h   65 % 0 mm
11:12 -9.6 °C -13.3 °C 34740.4 hPa ENE 9 km/h 9 km/h 64 % 0 mm
11:17 -9.6 °C -13.3 °C 34740.4 hPa NNW 11.9 km/h 11.9 km/h 64 % 0 mm
11:22 -9.4 °C -13.2 °C 34740.4 hPa NE 9 km/h 9 km/h 64 % 0 mm
11:27 -9.3 °C -13.2 °C 34740.4 hPa NE 6 km/h 6 km/h 63 % 0 mm
11:32 -9.3 °C -13.2 °C 34740.4 hPa NNE 11.9 km/h 11.9 km/h 63 % 0 mm
11:37 -9.3 °C -13.2 °C 34740.4 hPa ENE 6.3 km/h 6.3 km/h 63 % 0 mm
11:42 -9.3 °C -13.3 °C 34740.4 hPa East 7.6 km/h 7.6 km/h 62 % 0 mm
11:47 -9.2 °C -13.2 °C 34740.4 hPa ENE 15 km/h 15 km/h 62 % 0 mm
11:52 -9.1 °C -13.1 °C 34740.4 hPa NNE 9.3 km/h 9.3 km/h 62 % 0 mm
11:57 -9 °C -13 °C 34740.4 hPa NNE 6.8 km/h 6.8 km/h 62 % 0 mm
12:02 -8.8 °C -12.8 °C 34740.4 hPa East 3.1 km/h   62 % 0 mm
12:07 -8.5 °C -12.6 °C 34740.4 hPa ESE 6 km/h 6 km/h 62 % 0 mm
12:12 -8.3 °C -12.6 °C 34740.4 hPa East 6 km/h 6 km/h 60 % 0 mm
12:17 -8.2 °C -12.7 °C 34740.4 hPa ESE 9 km/h 9 km/h 59 % 0 mm
12:22 -8.1 °C -12.7 °C 34740.4 hPa ESE 6 km/h 6.3 km/h 58 % 0 mm
12:27 -8.1 °C -12.6 °C 34740.4 hPa WSW 6 km/h 6 km/h 59 % 0 mm
12:32 -8 °C -12.7 °C 34740.4 hPa East 9 km/h 9 km/h 58 % 0 mm
12:37 -8.2 °C -12.8 °C 34740.4 hPa ESE 9 km/h 9 km/h 58 % 0 mm
12:42 -7.9 °C -12.4 °C 34740.4 hPa ESE 8.5 km/h 8.5 km/h 59 % 0 mm
12:47 -8 °C -12.7 °C 34740.4 hPa NNE 9 km/h 9 km/h 58 % 0 mm
12:52 -8 °C -12.8 °C 34740.4 hPa NNE 9 km/h 9 km/h 57 % 0 mm
12:53 -8 °C -12.8 °C 34740.4 hPa ENE 6 km/h 6 km/h 57 % 0 mm
12:58 -7.9 °C -12.7 °C 34740.4 hPa East 6.3 km/h 6.8 km/h 57 % 0 mm
13:03 -7.7 °C -12.7 °C 34740.4 hPa NNE 6 km/h 6 km/h 56 % 0 mm
13:08 -7.7 °C -12.4 °C 34740.4 hPa NE 6.3 km/h 6.3 km/h 57 % 0 mm
13:13 -7.4 °C -12.3 °C 34740.4 hPa NNE 7.6 km/h 7.6 km/h 57 % 0 mm
13:18 -7.2 °C -12.2 °C 34740.4 hPa NNE 9 km/h 9 km/h 56 % 0 mm
13:23 -7 °C -12.2 °C 34740.4 hPa NNW 15 km/h 15 km/h 55 % 0 mm
13:28 -6.9 °C -12.1 °C 34703.1 hPa SSE 6 km/h 6 km/h 55 % 0 mm
13:33 -6.7 °C -11.8 °C 34703.1 hPa SSW 6 km/h 6 km/h 55 % 0 mm
13:38 -6.4 °C -11.7 °C 34703.1 hPa SW 11.9 km/h 11.9 km/h 54 % 0 mm
13:43 -6.3 °C -11.8 °C 34669.3 hPa SW 15 km/h 15 km/h 53 % 0 mm
13:48 -6.5 °C -12.2 °C 34669.3 hPa SSE 15 km/h 15 km/h 52 % 0 mm
13:53 -6.4 °C -11.9 °C 34669.3 hPa West 11.9 km/h 11.9 km/h 53 % 0 mm
13:58 -6.6 °C -12.3 °C 34669.3 hPa North 9 km/h 9 km/h 52 % 0 mm
14:03 -6.5 °C -12.2 °C 34669.3 hPa NNW 9 km/h 9 km/h 52 % 0 mm
14:08 -6.3 °C -12 °C 34669.3 hPa West 9.3 km/h 9.3 km/h 52 % 0 mm
14:13 -6.3 °C -11.9 °C 34669.3 hPa SSW 8 km/h 8 km/h 52 % 0 mm
14:18 -6.2 °C -11.9 °C 34669.3 hPa West 9.8 km/h 9.8 km/h 52 % 0 mm
14:23 -6.4 °C -12.1 °C 34669.3 hPa WNW 9 km/h 9 km/h 52 % 0 mm
14:28 -6.4 °C -12.3 °C 34669.3 hPa SW 9 km/h 9 km/h 51 % 0 mm
14:33 -6.3 °C -12.2 °C 34669.3 hPa SSW 11.9 km/h 11.9 km/h 51 % 0 mm
14:38 -6.3 °C -12.1 °C 34669.3 hPa SW 11.9 km/h 11.9 km/h 51 % 0 mm
14:43 -6.3 °C -12.1 °C 34669.3 hPa SW 11.9 km/h 11.9 km/h 51 % 0 mm
14:48 -6.3 °C -12.1 °C 34669.3 hPa West 11.9 km/h 11.9 km/h 51 % 0 mm
14:53 -6.2 °C -12.1 °C 34669.3 hPa SW 11.9 km/h 11.9 km/h 51 % 0 mm
14:58 -6.2 °C -12.2 °C 34669.3 hPa West 11.9 km/h 11.9 km/h 50 % 0 mm
15:03 -6.1 °C -12.3 °C 34669.3 hPa SW 15 km/h 15 km/h 49 % 0 mm
15:08 -6.1 °C -12.3 °C 34669.3 hPa WSW 15 km/h 15 km/h 49 % 0 mm
15:13 -5.9 °C -12.1 °C 34635.4 hPa NW 9 km/h 9 km/h 49 % 0 mm
15:18 -5.8 °C -12.1 °C 34635.4 hPa West 20.9 km/h 20.9 km/h 49 % 0 mm
15:23 -5.8 °C -12.2 °C 34635.4 hPa WSW 9 km/h 9 km/h 48 % 0 mm
15:28 -5.7 °C -12.1 °C 34635.4 hPa West 9 km/h 9 km/h 48 % 0 mm
15:33 -5.7 °C -12.1 °C 34635.4 hPa SSW 14 km/h 14 km/h 48 % 0 mm
15:38 -5.6 °C -12 °C 34635.4 hPa SSW 11.9 km/h 11.9 km/h 48 % 0 mm
15:43 -5.5 °C -12.1 °C 34635.4 hPa SSE 6 km/h 6 km/h 47 % 0 mm
15:48 -5.8 °C -12.3 °C 34635.4 hPa ESE 6 km/h 6 km/h 47 % 0 mm
15:53 -5.6 °C -12.2 °C 34635.4 hPa South 15 km/h 15 km/h 47 % 0 mm
15:58 -5.5 °C -12.1 °C 34635.4 hPa NNW 3.7 km/h 3.7 km/h 47 % 0 mm
16:03 -5.5 °C -12.3 °C 34635.4 hPa WSW 9 km/h 9 km/h 46 % 0 mm
16:08 -5.6 °C -12.2 °C 34635.4 hPa SW 6 km/h 6 km/h 47 % 0 mm
16:13 -5.6 °C -12.3 °C 34635.4 hPa SW 6 km/h 6.8 km/h 46 % 0 mm
16:18 -5.4 °C -12 °C 34635.4 hPa WSW 6 km/h 6 km/h 47 % 0 mm
16:23 -5.3 °C -12.1 °C 34635.4 hPa SW 6 km/h 6 km/h 46 % 0 mm
16:28 -5.3 °C -12.1 °C 34635.4 hPa West 6 km/h 6 km/h 46 % 0 mm
16:33 -5.4 °C -12.2 °C 34635.4 hPa NNW 9 km/h 9 km/h 46 % 0 mm
16:38 -5.5 °C -12.3 °C 34635.4 hPa NW 11.9 km/h 11.9 km/h 46 % 0 mm
16:43 -5.6 °C -12.3 °C 34635.4 hPa West 8 km/h 8 km/h 46 % 0 mm
16:48 -5.5 °C -12.3 °C 34635.4 hPa WNW 8 km/h 8 km/h 46 % 0 mm
16:53 -5.5 °C -12.3 °C 34635.4 hPa NNW 9 km/h 9 km/h 46 % 0 mm
16:58 -5.6 °C -12.3 °C 34601.5 hPa SW 9.3 km/h 9.3 km/h 46 % 0 mm
17:03 -5.6 °C -12.3 °C 34601.5 hPa West 5.1 km/h 5.1 km/h 46 % 0 mm
17:08 -5.6 °C -12.3 °C 34601.5 hPa WSW 3.7 km/h 3.7 km/h 46 % 0 mm
17:13 -5.6 °C -12.3 °C 34601.5 hPa WSW 9 km/h 9 km/h 46 % 0 mm
17:18 -5.7 °C -12.4 °C 34601.5 hPa NW 9 km/h 9 km/h 46 % 0 mm
17:23 -5.6 °C -12.3 °C 34601.5 hPa NNW 6 km/h 6 km/h 46 % 0 mm
17:28 -5.6 °C -12.3 °C 34635.4 hPa West 9 km/h 9 km/h 46 % 0 mm
17:33 -5.6 °C -12.3 °C 34635.4 hPa West 5.6 km/h 5.6 km/h 46 % 0 mm
17:39 -5.6 °C -12.3 °C 34635.4 hPa WSW 6 km/h 6 km/h 46 % 0 mm
17:44 -5.7 °C -12.4 °C 34635.4 hPa West 6 km/h 6 km/h 46 % 0 mm
17:54 -5.8 °C -12.7 °C 34635.4 hPa NW 5.6 km/h   45 % 0 mm
17:59 -6 °C -12.9 °C 34635.4 hPa NE 9 km/h 9 km/h 45 % 0 mm
18:04 -6.1 °C -13 °C 34635.4 hPa West 6.3 km/h 6.3 km/h 45 % 0 mm
18:09 -6.2 °C -13.1 °C 34635.4 hPa WSW 7.6 km/h 7.6 km/h 45 % 0 mm
18:14 -6.3 °C -13.2 °C 34635.4 hPa NW 6 km/h 6 km/h 45 % 0 mm
18:19 -6.3 °C -13.2 °C 34635.4 hPa WNW 11.9 km/h 11.9 km/h 45 % 0 mm
18:24 -6.4 °C -13.3 °C 34635.4 hPa West 6 km/h 6 km/h 45 % 0 mm
18:29 -6.6 °C -13.4 °C 34635.4 hPa NW 6 km/h 6 km/h 45 % 0 mm
18:34 -6.7 °C -13.7 °C 34635.4 hPa WNW 6 km/h 6 km/h 44 % 0 mm
18:39 -6.8 °C -13.8 °C 34635.4 hPa West 6 km/h 6 km/h 44 % 0 mm
18:44 -6.9 °C -13.9 °C 34635.4 hPa WNW 6 km/h 6 km/h 44 % 0 mm
18:49 -7.1 °C -14.1 °C 34635.4 hPa WNW 6 km/h 6 km/h 44 % 0 mm
18:54 -7.3 °C -13.9 °C 34635.4 hPa West 6.8 km/h 6.8 km/h 46 % 0 mm
18:59 -7.4 °C -14 °C 34635.4 hPa WNW 6 km/h 6 km/h 46 % 0 mm
19:04 -7.6 °C -14.1 °C 34635.4 hPa NE 6 km/h 6 km/h 46 % 0 mm
19:09 -7.7 °C -14.2 °C 34669.3 hPa NE 6 km/h 6 km/h 46 % 0 mm
19:14 -7.8 °C -14.4 °C 34669.3 hPa West 6 km/h 6 km/h 46 % 0 mm
19:19 -8 °C -14.3 °C 34669.3 hPa NE 6 km/h 6 km/h 47 % 0 mm
19:24 -8.1 °C -14.5 °C 34669.3 hPa ENE 3.7 km/h 3.7 km/h 47 % 0 mm
19:25 -10.6 °C -14.4 °C 34669.3 hPa Calm   2.6 km/h 63 % 0 mm
19:29 -8.2 °C -14.6 °C 34669.3 hPa NNE 6 km/h 6 km/h 47 % 0 mm
19:34 -8.3 °C -14.4 °C 34669.3 hPa West 3.1 km/h   48 % 0 mm
19:35 -10.6 °C -14.4 °C 34669.3 hPa WNW 2.6 km/h 5.1 km/h 63 % 0 mm
19:39 -8.4 °C -14.4 °C 34669.3 hPa NNE 6 km/h 6 km/h 49 % 0 mm
19:44 -8.5 °C -14.5 °C 34669.3 hPa North 6 km/h 6 km/h 49 % 0 mm
19:45 -10.7 °C -14.3 °C 34669.3 hPa Calm   5.1 km/h 64 % 0 mm
19:49 -8.6 °C -14.4 °C 34669.3 hPa WNW 6 km/h 6 km/h 50 % 0 mm
19:54 -8.6 °C -14.4 °C 34669.3 hPa NW 6 km/h 6 km/h 50 % 0 mm
19:55 -10.8 °C -14.5 °C 34669.3 hPa Calm     64 % 0 mm
19:59 -8.7 °C -14.5 °C 34669.3 hPa SSW 3.7 km/h 3.7 km/h 50 % 0 mm
20:04 -8.8 °C -14.4 °C 34669.3 hPa WSW 3.1 km/h   51 % 0 mm
20:05 -10.9 °C -14.4 °C 34669.3 hPa Calm     65 % 0 mm
20:09 -8.9 °C -14.6 °C 34669.3 hPa SW 6.8 km/h 6.8 km/h 51 % 0 mm
20:14 -9 °C -14.6 °C 34669.3 hPa SW 6.8 km/h 6.8 km/h 51 % 0 mm
20:15 -11.1 °C -14.6 °C 34669.3 hPa WNW 2.6 km/h 5.1 km/h 65 % 0 mm
20:19 -9.1 °C -14.7 °C 34669.3 hPa SW 6 km/h 6 km/h 51 % 0 mm
20:24 -9.1 °C -14.6 °C 34669.3 hPa Calm     52 % 0 mm
20:25 -11.1 °C -14.5 °C 34669.3 hPa Calm   5.1 km/h 66 % 0 mm
20:29 -9.1 °C -14.6 °C 34669.3 hPa SW 3.7 km/h 3.7 km/h 52 % 0 mm
20:34 -9.1 °C -14.5 °C 34669.3 hPa WSW 3.1 km/h 3.1 km/h 52 % 0 mm
20:35 -11.2 °C -14.8 °C 34669.3 hPa WSW 5.1 km/h 5.1 km/h 65 % 0 mm
20:39 -9.1 °C -14.6 °C 34703.1 hPa WSW 6 km/h 6 km/h 52 % 0 mm
20:44 -9.2 °C -14.5 °C 34703.1 hPa WSW 6.3 km/h 6.3 km/h 53 % 0 mm
20:45 -11.3 °C -14.8 °C 34703.1 hPa Calm   5.1 km/h 66 % 0 mm
20:49 -9.3 °C -14.6 °C 34703.1 hPa SW 6 km/h 6 km/h 53 % 0 mm
20:54 -9.3 °C -14.6 °C 34669.3 hPa WSW 4.2 km/h   53 % 0 mm
20:55 -11.3 °C -14.6 °C 34703.1 hPa WSW 2.6 km/h 5.1 km/h 67 % 0 mm
20:59 -9.3 °C -14.5 °C 34669.3 hPa WSW 3.1 km/h 3.1 km/h 54 % 0 mm
21:04 -9.4 °C -14.6 °C 34669.3 hPa Calm     54 % 0 mm
21:05 -11.3 °C -14.6 °C 34669.3 hPa Calm   5.1 km/h 67 % 0 mm
21:09 -9.4 °C -14.6 °C 34669.3 hPa Calm     54 % 0 mm
21:14 -9.4 °C -14.6 °C 34669.3 hPa WSW 3.1 km/h   54 % 0 mm
21:15 -11.3 °C -14.5 °C 34669.3 hPa Calm   5.1 km/h 68 % 0 mm
21:19 -9.6 °C -14.6 °C 34669.3 hPa Calm     55 % 0 mm
21:24 -9.6 °C -14.6 °C 34669.3 hPa Calm     55 % 0 mm
21:25 -11.3 °C -14.4 °C 34669.3 hPa Calm   2.6 km/h 69 % 0 mm
21:29 -9.6 °C -14.4 °C 34669.3 hPa North 3.1 km/h 3.7 km/h 56 % 0 mm
21:34 -9.6 °C -14.4 °C 34669.3 hPa Calm     56 % 0 mm
21:35 -11.4 °C -14.4 °C 34669.3 hPa NE 2.6 km/h 5.1 km/h 69 % 0 mm
21:39 -9.6 °C -14.4 °C 34669.3 hPa Calm     56 % 0 mm
21:44 -9.7 °C -14.5 °C 34669.3 hPa Calm     56 % 0 mm
21:45 -11.4 °C -14.5 °C 34669.3 hPa Calm   2.6 km/h 69 % 0 mm
21:49 -9.7 °C -14.3 °C 34669.3 hPa Calm     57 % 0 mm
21:54 -9.7 °C -14.4 °C 34669.3 hPa WSW 6 km/h 6 km/h 57 % 0 mm
21:55 -11.6 °C -14.6 °C 34669.3 hPa Calm   2.6 km/h 70 % 0 mm
21:59 -9.9 °C -14.6 °C 34669.3 hPa WSW 5.1 km/h 5.1 km/h 57 % 0 mm
22:04 -10 °C -14.7 °C 34669.3 hPa SW 6 km/h 6.3 km/h 57 % 0 mm
22:05 -11.7 °C -14.8 °C 34669.3 hPa Calm   5.1 km/h 69 % 0 mm
22:09 -10 °C -14.6 °C 34669.3 hPa SW 3.7 km/h 3.7 km/h 58 % 0 mm
22:14 -10 °C -14.6 °C 34669.3 hPa SW 3.1 km/h 3.1 km/h 58 % 0 mm
22:15 -11.7 °C -14.6 °C 34669.3 hPa Calm     70 % 0 mm
22:19 -9.9 °C -14.5 °C 34669.3 hPa Calm     58 % 0 mm
22:24 -9.9 °C -14.4 °C 34635.4 hPa NW 6 km/h 6 km/h 58 % 0 mm
22:25 -11.6 °C -14.6 °C 34669.3 hPa Calm   5.1 km/h 70 % 0 mm
22:29 -9.9 °C -14.4 °C 34635.4 hPa Calm     58 % 0 mm
22:34 -9.8 °C -14.3 °C 34635.4 hPa Calm     58 % 0 mm
22:35 -11.7 °C -14.6 °C 34669.3 hPa WSW 2.6 km/h 7.7 km/h 70 % 0 mm
22:39 -9.8 °C -14.2 °C 34669.3 hPa Calm     59 % 0 mm
22:44 -9.8 °C -14.2 °C 34669.3 hPa Calm     59 % 0 mm
22:45 -11.7 °C -14.6 °C 34669.3 hPa Calm   7.7 km/h 71 % 0 mm
22:49 -9.8 °C -14.1 °C 34669.3 hPa North 6 km/h 6 km/h 60 % 0 mm
22:54 -9.9 °C -14.1 °C 34669.3 hPa North 3.1 km/h   60 % 0 mm
22:55 -11.7 °C -14.4 °C 34669.3 hPa Calm   2.6 km/h 72 % 0 mm
22:59 -9.9 °C -14.1 °C 34669.3 hPa Calm     60 % 0 mm
23:04 -9.9 °C -14.2 °C 34669.3 hPa Calm     60 % 0 mm
23:05 -11.7 °C -14.6 °C 34669.3 hPa Calm   2.6 km/h 71 % 0 mm
23:09 -10 °C -14.3 °C 34669.3 hPa Calm     60 % 0 mm
23:14 -10 °C -14.3 °C 34669.3 hPa Calm     60 % 0 mm
23:15 -11.8 °C -14.5 °C 34669.3 hPa NE 2.6 km/h 5.1 km/h 72 % 0 mm
23:19 -10.1 °C -14.2 °C 34669.3 hPa Calm     61 % 0 mm
23:24 -10.2 °C -14.3 °C 34669.3 hPa Calm     61 % 0 mm
23:25 -11.8 °C -14.3 °C 34669.3 hPa NNE 2.6 km/h 2.6 km/h 73 % 0 mm
23:29 -10.3 °C -14.4 °C 34669.3 hPa WNW 3.1 km/h   61 % 0 mm
23:34 -10.4 °C -14.5 °C 34669.3 hPa WSW 3.1 km/h 3.1 km/h 61 % 0 mm
23:35 -11.8 °C -14.4 °C 34669.3 hPa NNE 2.6 km/h 5.1 km/h 73 % 0 mm
23:39 -10.4 °C -14.6 °C 34669.3 hPa Calm     61 % 0 mm
23:44 -10.5 °C -14.6 °C 34669.3 hPa WSW 6 km/h 6 km/h 61 % 0 mm
23:45 -12.1 °C -14.8 °C 34669.3 hPa West 5.1 km/h 7.7 km/h 72 % 0 mm
23:49 -10.6 °C -14.5 °C 34669.3 hPa North 3.7 km/h   62 % 0 mm
23:54 -10.6 °C -14.6 °C 34669.3 hPa WSW 3.7 km/h 3.7 km/h 62 % 0 mm
23:55 -12.1 °C -14.7 °C 34669.3 hPa WSW 2.6 km/h 5.1 km/h 73 % 0 mm
23:59 -10.6 °C -14.5 °C 34669.3 hPa WSW 6 km/h 6 km/h 62 % 0 mm
Meteo Sesrovires
Elogis d' Weather Underground - 1.5 mb

Guio original per  Jim McMurry - jmcmurry@mwt.net Adaptat per a la plantilla per  Wim van der Kuil - Leuven-Template.eu

Trobareu la nostra informacio del temps tambe a:

Weather Underground

AWEKAS